Indianapolis, Indiana
Current Conditions -  °F | °C
As of 12:54 AM on Tuesday 21 Oct 2014 (Local Time) from KIND Reporting Station
Few Clouds Few Clouds  
Wind Chill: 52°   Ceiling: Unl
Heat Index: 52°   Visibility: 10mi
Dew Point: 45°   Wind: 8mph
Humidity: 77%   Direction: 340°NNW
Pressure: 29.96"   Gusts: NA
Location:  39.77°N, 86.15°W
Report Text: KIND 210454Z 34007KT 10SM FEW065 11/07 A2996 RMK AO2 SLP145 T01110072 402000078
Loading
Personal Weather Stations






























Interactive Weather Map New forecast layout! Learn more

10-Day Weather Forecast

Advertisements
Track Severe Weather on mobile